找回密码
 注册

扫一扫,访问微社区

EDA365南京站-12月8日电子硬件技术研讨会

推荐主题

公告 公告: PCB设计大赛作品开始投票啦! admin 2019-11-27    
本版置顶 隐藏置顶帖 [仿真讨论] SI仿真工具闲聊 43人参与 attach_img  ...23 yawyw 2016-4-9 07:33 44 6942 changc365 2019-11-26 19:37
本版置顶 隐藏置顶帖 那些年,风靡全球的SI,PI,EMC BOOKS(2009--2015)外文版 115人参与 attach_img  ...23456..8 樱桃海弥 2016-2-2 17:33 116 11509 shenhuxi 2019-11-22 17:27
      
[Ansys仿真] Ansoftlinks4.2或者更高版本 2人参与 新人帖 New sam920 2019-12-5 18:03 2 42 小小样的小样 2019-12-5 21:36
[仿真讨论] DCR New heyongqiang 2019-12-5 16:52 0 48 heyongqiang 2019-12-5 16:52
[Cadence Sigrity] lvds信号串扰 Power SI参数分析 attach_img New yff014250 2019-12-5 16:02 0 54 yff014250 2019-12-5 16:02
[Ansys仿真] 铜线粗糙度对SI的影响 attachment New fighting668 2019-12-5 14:41 0 29 fighting668 2019-12-5 14:41
[仿真讨论] 以HFSS做传输线的TDR是很“基本”的题目,但却潜藏至少四点新手易犯错误 1人参与 新人帖 attachment New fighting668 2019-12-5 13:30 2 66 fighting668 2019-12-5 13:33
6年layout 想学习仿真 3人参与 New 软件工 2019-12-5 10:37 6 84 1597689180@qq.c 2019-12-5 13:59
[仿真讨论] 信号完整性不好的原因 1人参与 attach_img New Griffin 2019-12-5 10:35 1 53 fighting668 2019-12-5 13:39
[仿真讨论] 25G高速仿真大家用什么软件? 2人参与 新人帖 New lgs 2019-12-4 17:02 1 113 changc365 2019-12-4 22:02
[Ansys仿真] ANSYS 17.0测试报告:电大尺寸天线罩与波导裂缝阵一体化仿真 1人参与 attach_img New Mhza 2019-12-4 10:14 1 66 zjsxuw 2019-12-4 18:04
[资料下载] DDR3的频率问题 3人参与 attach_img New LHT19891224 2019-12-3 15:47 9 109 dzkcool 2019-12-5 10:44
[CST仿真] 求教cst2013上的安装问题? 1人参与 New dark 2019-12-3 14:18 1 51 Zgg 2019-12-3 16:11
[Cadence Sigrity] 求agilent pattern editor and sequencer 码型生成工具 attach_img New yff014250 2019-12-3 14:08 0 44 yff014250 2019-12-3 14:08
[HyperLynx] Hyperlynx:传输线端接和串扰仿真 2人参与 attach_img New NJNU 2019-12-3 13:20 2 63 michaelsjw 2019-12-5 17:42
[Cadence Sigrity] ibs模型没有component 2人参与 attach_img New yff014250 2019-12-3 11:52 2 58 yff014250 2019-12-4 09:50
[HyperLynx] hyperlynx broadsimSim功能介绍 2人参与 New NJNU 2019-12-3 11:26 1 56 STM 2019-12-3 18:20
[HyperLynx] Hyperlynx 仿真模型讲解 2人参与 New NJNU 2019-12-3 11:23 1 62 STM 2019-12-3 18:22
[Cadence Sigrity] PowerDC 热仿真中选择了发热器件为什么PCB Components不高亮 attach_img New hyxs714154 2019-12-2 23:14 0 77 hyxs714154 2019-12-2 23:14
[Cadence Sigrity] PowerDC中电感直流电阻设置不了嘛,出现E也编辑不了 3人参与 attach_img New hyxs714154 2019-12-2 20:44 3 76 heyongqiang 2019-12-5 16:34
[仿真讨论] 信号完整性测试入门——下 2人参与 attach_img New pcbfly 2019-12-2 14:59 3 114 dd1258 2019-12-2 21:58
[仿真讨论] 信号完整性测试入门——上 3人参与 New pcbfly 2019-12-2 13:44 3 81 fighting668 2019-12-5 13:40
[HyperLynx] HyperLynx SI信号完整性仿真分析技术 1人参与 New pcbfly 2019-12-2 13:37 1 79 STM 2019-12-2 18:25
[HyperLynx] HyperLynx PI电源完整性分析技术 1人参与 attach_img New pcbfly 2019-12-2 13:30 1 66 STM 2019-12-2 18:25
[Cadence Sigrity] Power DC IRDrop 3%误差算出的为什么会Fail 3人参与 attach_img New hyxs714154 2019-12-1 22:11 3 74 hyxs714154 2019-12-2 19:57
下一页 »
还可输入 80 个字符
您需要登录后才可以发帖 登录 | 注册

本版积分规则

关闭

推荐内容上一条 /1 下一条

EDA365公众号

关于我们|手机版|EDA365电子论坛网 ( 粤ICP备18020198号 )

GMT+8, 2019-12-6 03:49 , Processed in 0.078125 second(s), 14 queries , Gzip On.

深圳市墨知创新科技有限公司

地址:深圳市南山区科技生态园2栋A座805 电话:19925233282

返回顶部 返回版块